createdAt,value
2019-03-17T00:00:00.428Z,8.40
2019-03-17T00:04:05.411Z,8.41
2019-03-17T00:08:10.279Z,8.40
2019-03-17T00:12:15.172Z,8.37
2019-03-17T00:16:20.061Z,8.29
2019-03-17T00:20:24.987Z,8.22
2019-03-17T00:24:29.851Z,8.16
2019-03-17T00:28:34.743Z,8.19
2019-03-17T00:32:39.684Z,8.81
2019-03-17T00:36:44.529Z,8.82
2019-03-17T00:40:49.420Z,8.76
2019-03-17T00:44:54.296Z,8.73
2019-03-17T00:48:59.183Z,8.67
2019-03-17T00:53:04.073Z,8.63
2019-03-17T00:57:08.961Z,8.61
2019-03-17T01:01:13.922Z,8.59
2019-03-17T01:05:18.823Z,8.58
2019-03-17T01:09:23.714Z,8.57
2019-03-17T01:13:28.600Z,8.54
2019-03-17T01:17:34.562Z,8.56
2019-03-17T01:21:39.456Z,8.53
2019-03-17T01:25:44.332Z,8.51
2019-03-17T01:29:49.380Z,8.47
2019-03-17T01:33:54.275Z,8.42
2019-03-17T01:37:59.169Z,8.36
2019-03-17T01:42:04.057Z,8.36
2019-03-17T01:46:08.951Z,8.31
2019-03-17T01:50:13.835Z,8.27
2019-03-17T01:54:18.741Z,8.28
2019-03-17T01:58:23.632Z,8.25
2019-03-17T02:02:28.521Z,8.24
2019-03-17T02:06:33.405Z,8.20
2019-03-17T02:10:38.294Z,8.15
2019-03-17T02:14:43.182Z,8.11
2019-03-17T02:18:48.077Z,8.08
2019-03-17T02:22:52.965Z,8.04
2019-03-17T02:26:57.850Z,8.02
2019-03-17T02:31:02.744Z,7.99
2019-03-17T02:35:07.704Z,7.96
2019-03-17T02:39:12.605Z,7.98
2019-03-17T02:43:17.490Z,7.99
2019-03-17T02:47:22.376Z,8.01
2019-03-17T02:51:27.266Z,8.01
2019-03-17T02:55:32.155Z,8.00
2019-03-17T02:59:37.042Z,7.99
2019-03-17T03:03:41.948Z,8.14
2019-03-17T03:07:46.825Z,8.18
2019-03-17T03:11:51.705Z,8.11
2019-03-17T03:15:56.591Z,8.03
2019-03-17T03:20:01.480Z,7.99
2019-03-17T03:24:06.375Z,7.94
2019-03-17T03:28:12.233Z,7.89
2019-03-17T03:32:17.119Z,7.89
2019-03-17T03:36:23.083Z,7.87
2019-03-17T03:40:27.971Z,7.85
2019-03-17T03:44:33.828Z,7.82
2019-03-17T03:48:38.714Z,7.79
2019-03-17T03:52:43.607Z,7.80
2019-03-17T03:56:48.486Z,7.79
2019-03-17T04:00:53.384Z,7.78
2019-03-17T04:04:58.354Z,7.77
2019-03-17T04:09:04.585Z,7.78
2019-03-17T04:13:09.463Z,7.78
2019-03-17T04:17:14.357Z,7.81
2019-03-17T04:21:19.241Z,7.90
2019-03-17T04:25:24.152Z,8.37
2019-03-17T04:29:29.026Z,8.28
2019-03-17T04:33:33.910Z,8.16
2019-03-17T04:37:38.825Z,8.05
2019-03-17T04:41:43.716Z,7.95
2019-03-17T04:45:48.599Z,7.89
2019-03-17T04:49:53.492Z,7.83
2019-03-17T04:53:58.366Z,7.82
2019-03-17T04:58:03.263Z,7.80
2019-03-17T05:02:08.221Z,7.79
2019-03-17T05:06:13.119Z,7.79
2019-03-17T05:10:18.012Z,7.81
2019-03-17T05:14:22.895Z,7.82
2019-03-17T05:18:27.780Z,7.81
2019-03-17T05:22:32.671Z,7.82
2019-03-17T05:26:37.595Z,7.89
2019-03-17T05:30:42.467Z,7.96
2019-03-17T05:34:47.348Z,8.05
2019-03-17T05:38:52.230Z,8.17
2019-03-17T05:42:57.131Z,8.26
2019-03-17T05:47:02.023Z,8.33
2019-03-17T05:51:06.917Z,8.37
2019-03-17T05:55:11.798Z,8.35
2019-03-17T05:59:19.693Z,8.32
2019-03-17T06:03:24.278Z,8.63
2019-03-17T06:07:29.173Z,8.64
2019-03-17T06:11:35.034Z,8.53
2019-03-17T06:15:39.905Z,8.47
2019-03-17T06:19:44.813Z,8.45
2019-03-17T06:23:49.699Z,8.48
2019-03-17T06:27:54.586Z,8.53
2019-03-17T06:31:59.479Z,8.60
2019-03-17T06:36:04.447Z,8.67
2019-03-17T06:40:11.781Z,8.76
2019-03-17T06:44:16.669Z,8.81
2019-03-17T06:48:21.576Z,8.84
2019-03-17T06:52:26.457Z,8.90
2019-03-17T06:56:31.343Z,8.99
2019-03-17T07:00:36.234Z,9.05
2019-03-17T07:04:41.126Z,9.11
2019-03-17T07:08:46.023Z,9.29
2019-03-17T07:12:50.905Z,9.42
2019-03-17T07:16:55.795Z,9.47
2019-03-17T07:21:00.693Z,9.49
2019-03-17T07:25:07.229Z,9.67
2019-03-17T07:29:12.122Z,9.88
2019-03-17T07:33:17.037Z,9.88
2019-03-17T07:37:21.921Z,9.90
2019-03-17T07:41:26.810Z,9.96
2019-03-17T07:45:31.712Z,10.06
2019-03-17T07:49:36.614Z,10.22
2019-03-17T07:53:41.505Z,10.56
2019-03-17T07:57:46.408Z,10.43
2019-03-17T08:01:51.315Z,10.27
2019-03-17T08:05:56.220Z,10.22
2019-03-17T08:10:01.118Z,10.22
2019-03-17T08:14:06.010Z,10.27
2019-03-17T08:18:10.910Z,10.35
2019-03-17T08:22:16.384Z,10.38
2019-03-17T08:26:21.291Z,10.42
2019-03-17T08:30:26.198Z,10.45
2019-03-17T08:34:31.089Z,10.48
2019-03-17T08:38:35.985Z,10.57
2019-03-17T08:42:40.882Z,10.63
2019-03-17T08:46:46.702Z,11.28
2019-03-17T08:50:51.601Z,11.83
2019-03-17T08:54:57.567Z,11.48
2019-03-17T08:59:02.444Z,11.24
2019-03-17T09:03:07.339Z,11.09
2019-03-17T09:07:12.241Z,10.90
2019-03-17T09:11:17.147Z,10.79
2019-03-17T09:15:22.038Z,10.65
2019-03-17T09:19:26.936Z,10.63
2019-03-17T09:23:31.833Z,10.64
2019-03-17T09:27:36.729Z,10.63
2019-03-17T09:31:41.635Z,10.66
2019-03-17T09:35:46.513Z,10.61
2019-03-17T09:39:51.415Z,10.65
2019-03-17T09:43:56.310Z,10.72
2019-03-17T09:48:01.199Z,10.81
2019-03-17T09:52:06.094Z,10.85
2019-03-17T09:56:10.988Z,10.86
2019-03-17T10:00:23.011Z,10.86
2019-03-17T10:04:27.909Z,10.86
2019-03-17T10:08:32.817Z,10.91
2019-03-17T10:12:37.699Z,11.00
2019-03-17T10:16:42.583Z,10.99
2019-03-17T10:20:47.484Z,10.86
2019-03-17T10:24:52.385Z,10.79
2019-03-17T10:28:57.275Z,10.78
2019-03-17T10:33:03.151Z,10.90
2019-03-17T10:37:08.034Z,10.98
2019-03-17T10:41:12.939Z,10.92
2019-03-17T10:45:17.900Z,10.95
2019-03-17T10:49:22.809Z,10.78
2019-03-17T10:53:27.700Z,10.39
2019-03-17T10:57:32.588Z,9.09
2019-03-17T11:01:37.469Z,8.31
2019-03-17T11:05:43.831Z,7.83
2019-03-17T11:09:48.724Z,7.46
2019-03-17T11:13:53.619Z,7.31
2019-03-17T11:17:58.504Z,7.37
2019-03-17T11:22:03.397Z,7.49
2019-03-17T11:26:08.288Z,7.59
2019-03-17T11:30:16.223Z,7.77
2019-03-17T11:34:22.085Z,7.88
2019-03-17T11:38:26.971Z,8.27
2019-03-17T11:42:31.865Z,8.69
2019-03-17T11:46:36.812Z,8.80
2019-03-17T11:50:41.648Z,8.89
2019-03-17T11:54:46.542Z,8.89
2019-03-17T11:58:51.428Z,8.89
2019-03-17T12:02:57.284Z,8.86
2019-03-17T12:07:02.178Z,9.06
2019-03-17T12:11:07.072Z,9.13
2019-03-17T12:15:17.324Z,9.19
2019-03-17T12:19:22.200Z,9.14
2019-03-17T12:23:27.089Z,9.11
2019-03-17T12:27:31.976Z,9.12
2019-03-17T12:31:36.863Z,9.07
2019-03-17T12:35:41.753Z,9.01
2019-03-17T12:39:46.631Z,8.96
2019-03-17T12:43:51.527Z,8.90
2019-03-17T12:47:56.413Z,8.90
2019-03-17T12:52:01.306Z,8.95
2019-03-17T12:56:06.197Z,9.10
2019-03-17T13:00:13.891Z,9.30
2019-03-17T13:04:18.775Z,9.48
2019-03-17T13:08:23.662Z,9.61
2019-03-17T13:12:28.551Z,9.67
2019-03-17T13:16:33.443Z,9.80
2019-03-17T13:20:38.327Z,10.02
2019-03-17T13:24:43.229Z,10.03
2019-03-17T13:28:48.127Z,10.18
2019-03-17T13:32:53.024Z,10.38
2019-03-17T13:36:57.925Z,10.37
2019-03-17T13:41:02.821Z,10.48
2019-03-17T13:45:12.405Z,10.47
2019-03-17T13:49:17.329Z,10.39
2019-03-17T13:53:23.024Z,10.36
2019-03-17T13:57:28.099Z,10.40
2019-03-17T14:01:32.988Z,10.36
2019-03-17T14:05:37.883Z,10.34
2019-03-17T14:09:42.780Z,10.44
2019-03-17T14:13:47.686Z,10.54
2019-03-17T14:17:52.580Z,10.64
2019-03-17T14:21:57.473Z,10.66
2019-03-17T14:26:02.365Z,10.88
2019-03-17T14:30:13.295Z,10.89
2019-03-17T14:34:18.188Z,10.83
2019-03-17T14:38:23.091Z,10.75
2019-03-17T14:42:27.973Z,10.78
2019-03-17T14:46:35.590Z,10.73
2019-03-17T14:50:39.480Z,10.70
2019-03-17T14:54:44.374Z,10.79
2019-03-17T14:58:49.277Z,10.83
2019-03-17T15:02:54.170Z,10.66
2019-03-17T15:06:59.071Z,10.37
2019-03-17T15:11:05.973Z,10.31
2019-03-17T15:15:13.104Z,10.30
2019-03-17T15:19:18.003Z,10.05
2019-03-17T15:23:22.891Z,9.88
2019-03-17T15:27:27.783Z,9.83
2019-03-17T15:31:32.671Z,9.76
2019-03-17T15:35:37.566Z,9.47
2019-03-17T15:39:42.455Z,9.10
2019-03-17T15:43:47.337Z,8.70
2019-03-17T15:47:52.226Z,8.40
2019-03-17T15:51:57.120Z,7.96
2019-03-17T15:56:02.012Z,7.88
2019-03-17T16:00:25.096Z,7.85
2019-03-17T16:04:21.983Z,7.77
2019-03-17T16:08:28.340Z,7.65
2019-03-17T16:12:33.233Z,7.61
2019-03-17T16:16:38.122Z,7.79
2019-03-17T16:20:43.010Z,7.80
2019-03-17T16:24:47.886Z,7.83
2019-03-17T16:28:52.779Z,7.89
2019-03-17T16:32:57.742Z,7.93
2019-03-17T16:37:02.634Z,7.89
2019-03-17T16:41:07.521Z,7.83
2019-03-17T16:45:14.739Z,7.67
2019-03-17T16:49:20.598Z,7.28
2019-03-17T16:53:26.453Z,7.16
2019-03-17T16:57:31.341Z,7.12
2019-03-17T17:01:36.238Z,7.00
2019-03-17T17:05:41.112Z,6.79
2019-03-17T17:09:46.000Z,6.61
2019-03-17T17:13:50.893Z,6.57
2019-03-17T17:17:55.860Z,6.70
2019-03-17T17:22:00.751Z,6.82
2019-03-17T17:26:05.619Z,6.91
2019-03-17T17:30:15.469Z,6.96
2019-03-17T17:34:20.363Z,7.05
2019-03-17T17:38:25.259Z,7.09
2019-03-17T17:42:30.146Z,7.01
2019-03-17T17:46:35.031Z,7.00
2019-03-17T17:50:39.919Z,6.96
2019-03-17T17:54:44.813Z,7.02
2019-03-17T17:58:49.705Z,7.11
2019-03-17T18:02:54.601Z,7.06
2019-03-17T18:06:59.478Z,7.00
2019-03-17T18:11:04.434Z,6.95
2019-03-17T18:15:15.063Z,6.93
2019-03-17T18:19:19.951Z,7.01
2019-03-17T18:23:24.855Z,7.07
2019-03-17T18:27:29.720Z,7.04
2019-03-17T18:31:34.613Z,6.90
2019-03-17T18:35:39.516Z,6.70
2019-03-17T18:39:44.408Z,6.59
2019-03-17T18:43:49.296Z,6.55
2019-03-17T18:47:54.187Z,6.62
2019-03-17T18:51:59.083Z,6.37
2019-03-17T18:56:04.047Z,6.17
2019-03-17T19:00:14.886Z,6.04
2019-03-17T19:04:19.773Z,5.95
2019-03-17T19:08:24.670Z,5.87
2019-03-17T19:12:29.551Z,5.82
2019-03-17T19:16:34.436Z,5.76
2019-03-17T19:20:39.329Z,5.71
2019-03-17T19:24:44.234Z,5.76
2019-03-17T19:28:49.119Z,5.89
2019-03-17T19:32:54.006Z,5.95
2019-03-17T19:36:59.953Z,5.93
2019-03-17T19:41:04.916Z,5.92
2019-03-17T19:45:10.071Z,5.98
2019-03-17T19:49:14.958Z,6.05
2019-03-17T19:53:19.849Z,5.99
2019-03-17T19:57:24.745Z,5.90
2019-03-17T20:01:29.633Z,5.62
2019-03-17T20:05:34.518Z,5.44
2019-03-17T20:09:39.399Z,5.32
2019-03-17T20:13:44.291Z,5.21
2019-03-17T20:17:49.179Z,5.07
2019-03-17T20:21:54.067Z,5.01
2019-03-17T20:25:58.963Z,4.85
2019-03-17T20:30:08.995Z,4.66
2019-03-17T20:34:13.886Z,4.47
2019-03-17T20:38:18.780Z,4.50
2019-03-17T20:42:23.663Z,4.58
2019-03-17T20:46:28.626Z,4.63
2019-03-17T20:50:33.511Z,4.64
2019-03-17T20:54:38.401Z,4.61
2019-03-17T20:58:43.296Z,4.66
2019-03-17T21:02:48.188Z,4.63
2019-03-17T21:06:53.087Z,4.48
2019-03-17T21:10:57.960Z,4.45
2019-03-17T21:15:02.858Z,4.51
2019-03-17T21:19:07.751Z,4.73
2019-03-17T21:23:13.612Z,4.75
2019-03-17T21:27:18.529Z,4.72
2019-03-17T21:31:23.406Z,4.77
2019-03-17T21:35:28.295Z,4.82
2019-03-17T21:39:33.185Z,4.81
2019-03-17T21:43:38.076Z,4.74
2019-03-17T21:47:43.045Z,4.68
2019-03-17T21:51:47.939Z,4.58
2019-03-17T21:55:54.181Z,4.48
2019-03-17T22:00:00.405Z,4.42
2019-03-17T22:04:05.231Z,4.36
2019-03-17T22:08:10.130Z,4.32
2019-03-17T22:12:15.002Z,4.25
2019-03-17T22:16:19.902Z,4.19
2019-03-17T22:20:24.776Z,4.11
2019-03-17T22:24:29.664Z,4.01
2019-03-17T22:28:34.548Z,3.92
2019-03-17T22:32:39.435Z,3.88
2019-03-17T22:36:44.318Z,3.83
2019-03-17T22:40:49.208Z,3.81
2019-03-17T22:44:54.095Z,3.80
2019-03-17T22:48:58.977Z,3.79
2019-03-17T22:53:03.859Z,3.80
2019-03-17T22:57:08.748Z,3.96
2019-03-17T23:01:13.642Z,3.97
2019-03-17T23:05:18.530Z,3.90
2019-03-17T23:09:23.407Z,3.87
2019-03-17T23:13:28.294Z,3.86
2019-03-17T23:17:33.183Z,3.80
2019-03-17T23:21:38.068Z,3.76
2019-03-17T23:25:42.967Z,3.74
2019-03-17T23:29:47.844Z,3.72
2019-03-17T23:33:52.747Z,3.68
2019-03-17T23:37:57.640Z,3.65
2019-03-17T23:42:02.522Z,3.63
2019-03-17T23:46:07.405Z,3.61
2019-03-17T23:50:13.521Z,3.56
2019-03-17T23:54:18.410Z,3.55
2019-03-17T23:58:23.317Z,3.55
